sensor_id;sensor_type;location;lat;lon;timestamp;P1;durP1;ratioP1;P2;durP2;ratioP2
44810;SDS011;30526;52.184;4.476;2023-05-10T00:02:18;37.38;;;18.85;;
44810;SDS011;30526;52.184;4.476;2023-05-10T00:04:44;37.85;;;19.17;;
44810;SDS011;30526;52.184;4.476;2023-05-10T00:07:10;40.10;;;19.25;;
44810;SDS011;30526;52.184;4.476;2023-05-10T00:09:36;56.00;;;20.55;;
44810;SDS011;30526;52.184;4.476;2023-05-10T00:12:02;41.70;;;21.45;;
44810;SDS011;30526;52.184;4.476;2023-05-10T00:14:28;55.40;;;22.05;;
44810;SDS011;30526;52.184;4.476;2023-05-10T00:16:54;55.45;;;21.75;;
44810;SDS011;30526;52.184;4.476;2023-05-10T00:19:20;43.05;;;20.02;;
44810;SDS011;30526;52.184;4.476;2023-05-10T00:21:46;54.78;;;20.60;;
44810;SDS011;30526;52.184;4.476;2023-05-10T00:24:12;43.78;;;21.27;;
44810;SDS011;30526;52.184;4.476;2023-05-10T00:26:38;49.33;;;21.27;;
44810;SDS011;30526;52.184;4.476;2023-05-10T00:29:04;49.45;;;21.85;;
44810;SDS011;30526;52.184;4.476;2023-05-10T00:31:30;67.05;;;22.52;;
44810;SDS011;30526;52.184;4.476;2023-05-10T00:33:56;78.13;;;23.52;;
44810;SDS011;30526;52.184;4.476;2023-05-10T00:36:22;63.30;;;23.52;;
44810;SDS011;30526;52.184;4.476;2023-05-10T00:38:48;64.22;;;23.63;;
44810;SDS011;30526;52.184;4.476;2023-05-10T00:41:14;84.07;;;24.58;;
44810;SDS011;30526;52.184;4.476;2023-05-10T00:43:40;53.33;;;22.23;;
44810;SDS011;30526;52.184;4.476;2023-05-10T00:46:06;58.70;;;22.70;;
44810;SDS011;30526;52.184;4.476;2023-05-10T00:48:33;39.58;;;15.98;;
44810;SDS011;30526;52.184;4.476;2023-05-10T00:50:59;66.78;;;22.30;;
44810;SDS011;30526;52.184;4.476;2023-05-10T00:53:26;43.80;;;17.63;;
44810;SDS011;30526;52.184;4.476;2023-05-10T00:55:52;78.47;;;24.83;;
44810;SDS011;30526;52.184;4.476;2023-05-10T00:58:18;65.32;;;24.67;;
44810;SDS011;30526;52.184;4.476;2023-05-10T01:00:44;80.82;;;25.35;;
44810;SDS011;30526;52.184;4.476;2023-05-10T01:03:12;76.00;;;24.25;;
44810;SDS011;30526;52.184;4.476;2023-05-10T01:05:39;50.23;;;17.70;;
44810;SDS011;30526;52.184;4.476;2023-05-10T01:08:05;78.28;;;26.13;;
44810;SDS011;30526;52.184;4.476;2023-05-10T01:10:31;81.65;;;26.80;;
44810;SDS011;30526;52.184;4.476;2023-05-10T01:12:57;79.35;;;25.33;;
44810;SDS011;30526;52.184;4.476;2023-05-10T01:15:25;82.90;;;27.25;;
44810;SDS011;30526;52.184;4.476;2023-05-10T01:17:51;78.70;;;27.48;;
44810;SDS011;30526;52.184;4.476;2023-05-10T01:20:18;128.00;;;31.83;;
44810;SDS011;30526;52.184;4.476;2023-05-10T01:32:36;91.13;;;29.60;;
44810;SDS011;30526;52.184;4.476;2023-05-10T01:35:09;92.82;;;30.48;;
44810;SDS011;30526;52.184;4.476;2023-05-10T01:37:41;98.53;;;30.40;;
44810;SDS011;30526;52.184;4.476;2023-05-10T01:40:09;81.90;;;30.25;;
44810;SDS011;30526;52.184;4.476;2023-05-10T01:42:40;91.07;;;31.42;;
44810;SDS011;30526;52.184;4.476;2023-05-10T01:47:46;104.53;;;30.08;;
44810;SDS011;30526;52.184;4.476;2023-05-10T01:50:17;119.25;;;30.77;;
44810;SDS011;30526;52.184;4.476;2023-05-10T01:52:44;90.95;;;28.75;;
44810;SDS011;30526;52.184;4.476;2023-05-10T01:55:14;75.47;;;30.08;;
44810;SDS011;30526;52.184;4.476;2023-05-10T01:57:42;95.32;;;31.08;;
44810;SDS011;30526;52.184;4.476;2023-05-10T02:00:08;82.80;;;28.35;;
44810;SDS011;30526;52.184;4.476;2023-05-10T02:02:36;51.53;;;20.52;;
44810;SDS011;30526;52.184;4.476;2023-05-10T02:07:28;72.70;;;27.55;;
44810;SDS011;30526;52.184;4.476;2023-05-10T02:09:54;80.47;;;27.13;;
44810;SDS011;30526;52.184;4.476;2023-05-10T02:12:21;79.82;;;28.25;;
44810;SDS011;30526;52.184;4.476;2023-05-10T02:14:48;55.17;;;20.33;;
44810;SDS011;30526;52.184;4.476;2023-05-10T02:17:15;68.75;;;25.98;;
44810;SDS011;30526;52.184;4.476;2023-05-10T02:19:41;83.25;;;26.90;;
44810;SDS011;30526;52.184;4.476;2023-05-10T02:22:09;56.50;;;20.95;;
44810;SDS011;30526;52.184;4.476;2023-05-10T02:24:35;78.87;;;27.20;;
44810;SDS011;30526;52.184;4.476;2023-05-10T02:27:02;82.40;;;27.50;;
44810;SDS011;30526;52.184;4.476;2023-05-10T02:29:29;51.03;;;19.92;;
44810;SDS011;30526;52.184;4.476;2023-05-10T02:31:56;43.97;;;18.42;;
44810;SDS011;30526;52.184;4.476;2023-05-10T02:34:23;54.13;;;18.80;;
44810;SDS011;30526;52.184;4.476;2023-05-10T02:36:49;67.55;;;26.00;;
44810;SDS011;30526;52.184;4.476;2023-05-10T02:39:16;68.25;;;25.27;;
44810;SDS011;30526;52.184;4.476;2023-05-10T02:41:44;82.75;;;22.92;;
44810;SDS011;30526;52.184;4.476;2023-05-10T02:44:11;46.43;;;18.57;;
44810;SDS011;30526;52.184;4.476;2023-05-10T02:46:38;65.68;;;26.52;;
44810;SDS011;30526;52.184;4.476;2023-05-10T02:49:04;88.70;;;28.88;;
44810;SDS011;30526;52.184;4.476;2023-05-10T02:51:31;71.88;;;28.40;;
44810;SDS011;30526;52.184;4.476;2023-05-10T02:54:01;77.68;;;27.73;;
44810;SDS011;30526;52.184;4.476;2023-05-10T02:56:31;71.55;;;25.40;;
44810;SDS011;30526;52.184;4.476;2023-05-10T02:58:58;75.13;;;26.77;;
44810;SDS011;30526;52.184;4.476;2023-05-10T03:01:24;75.82;;;25.55;;
44810;SDS011;30526;52.184;4.476;2023-05-10T03:03:50;82.68;;;29.35;;
44810;SDS011;30526;52.184;4.476;2023-05-10T03:06:16;73.57;;;23.73;;
44810;SDS011;30526;52.184;4.476;2023-05-10T03:08:43;66.13;;;25.02;;
44810;SDS011;30526;52.184;4.476;2023-05-10T03:16:10;68.50;;;25.60;;
44810;SDS011;30526;52.184;4.476;2023-05-10T03:21:08;83.20;;;28.23;;
44810;SDS011;30526;52.184;4.476;2023-05-10T03:23:44;95.60;;;25.80;;
44810;SDS011;30526;52.184;4.476;2023-05-10T03:26:13;70.10;;;23.88;;
44810;SDS011;30526;52.184;4.476;2023-05-10T03:28:41;93.15;;;26.88;;
44810;SDS011;30526;52.184;4.476;2023-05-10T03:31:07;125.90;;;23.30;;
44810;SDS011;30526;52.184;4.476;2023-05-10T03:33:33;92.82;;;24.02;;
44810;SDS011;30526;52.184;4.476;2023-05-10T03:35:59;131.40;;;24.17;;
44810;SDS011;30526;52.184;4.476;2023-05-10T03:38:25;162.65;;;25.27;;
44810;SDS011;30526;52.184;4.476;2023-05-10T03:40:52;166.40;;;25.95;;
44810;SDS011;30526;52.184;4.476;2023-05-10T03:43:17;70.30;;;17.92;;
44810;SDS011;30526;52.184;4.476;2023-05-10T03:45:43;59.95;;;18.90;;
44810;SDS011;30526;52.184;4.476;2023-05-10T03:48:09;59.65;;;17.73;;
44810;SDS011;30526;52.184;4.476;2023-05-10T03:50:36;41.53;;;15.65;;
44810;SDS011;30526;52.184;4.476;2023-05-10T03:53:02;38.70;;;15.52;;
44810;SDS011;30526;52.184;4.476;2023-05-10T03:55:28;42.80;;;16.60;;
44810;SDS011;30526;52.184;4.476;2023-05-10T03:57:54;42.50;;;15.75;;
44810;SDS011;30526;52.184;4.476;2023-05-10T04:00:20;44.30;;;16.70;;
44810;SDS011;30526;52.184;4.476;2023-05-10T04:02:46;38.88;;;17.05;;
44810;SDS011;30526;52.184;4.476;2023-05-10T04:05:12;41.67;;;17.20;;
44810;SDS011;30526;52.184;4.476;2023-05-10T04:07:38;42.83;;;17.05;;
44810;SDS011;30526;52.184;4.476;2023-05-10T04:10:04;43.45;;;17.52;;
44810;SDS011;30526;52.184;4.476;2023-05-10T04:12:30;45.67;;;17.38;;
44810;SDS011;30526;52.184;4.476;2023-05-10T04:14:56;49.95;;;16.85;;
44810;SDS011;30526;52.184;4.476;2023-05-10T04:17:22;44.80;;;15.82;;
44810;SDS011;30526;52.184;4.476;2023-05-10T04:19:48;46.75;;;17.02;;
44810;SDS011;30526;52.184;4.476;2023-05-10T04:22:14;38.78;;;16.08;;
44810;SDS011;30526;52.184;4.476;2023-05-10T04:24:40;38.47;;;14.00;;
44810;SDS011;30526;52.184;4.476;2023-05-10T04:27:06;36.88;;;14.98;;
44810;SDS011;30526;52.184;4.476;2023-05-10T04:29:32;41.25;;;15.18;;
44810;SDS011;30526;52.184;4.476;2023-05-10T04:31:58;34.22;;;14.13;;
44810;SDS011;30526;52.184;4.476;2023-05-10T04:34:24;32.22;;;13.45;;
44810;SDS011;30526;52.184;4.476;2023-05-10T04:36:50;28.63;;;14.63;;
44810;SDS011;30526;52.184;4.476;2023-05-10T04:39:16;37.58;;;14.95;;
44810;SDS011;30526;52.184;4.476;2023-05-10T04:41:43;32.67;;;13.88;;
44810;SDS011;30526;52.184;4.476;2023-05-10T04:44:09;29.27;;;14.93;;
44810;SDS011;30526;52.184;4.476;2023-05-10T04:46:34;38.08;;;13.88;;
44810;SDS011;30526;52.184;4.476;2023-05-10T04:49:01;36.40;;;14.07;;
44810;SDS011;30526;52.184;4.476;2023-05-10T04:51:27;39.92;;;15.00;;
44810;SDS011;30526;52.184;4.476;2023-05-10T04:53:53;38.60;;;15.32;;
44810;SDS011;30526;52.184;4.476;2023-05-10T04:56:19;37.85;;;14.77;;
44810;SDS011;30526;52.184;4.476;2023-05-10T04:58:45;33.60;;;15.20;;
44810;SDS011;30526;52.184;4.476;2023-05-10T05:01:11;41.28;;;15.82;;
44810;SDS011;30526;52.184;4.476;2023-05-10T05:03:37;45.50;;;15.18;;
44810;SDS011;30526;52.184;4.476;2023-05-10T05:06:03;39.38;;;14.57;;
44810;SDS011;30526;52.184;4.476;2023-05-10T05:08:29;44.42;;;15.02;;
44810;SDS011;30526;52.184;4.476;2023-05-10T05:10:55;39.35;;;13.43;;
44810;SDS011;30526;52.184;4.476;2023-05-10T05:13:21;33.92;;;13.77;;
44810;SDS011;30526;52.184;4.476;2023-05-10T05:15:47;37.22;;;14.52;;
44810;SDS011;30526;52.184;4.476;2023-05-10T05:18:13;49.53;;;14.95;;
44810;SDS011;30526;52.184;4.476;2023-05-10T05:20:39;28.77;;;13.13;;
44810;SDS011;30526;52.184;4.476;2023-05-10T05:23:05;42.03;;;13.88;;
44810;SDS011;30526;52.184;4.476;2023-05-10T05:25:31;39.92;;;14.55;;
44810;SDS011;30526;52.184;4.476;2023-05-10T05:27:57;42.90;;;14.02;;
44810;SDS011;30526;52.184;4.476;2023-05-10T05:30:23;29.67;;;12.27;;
44810;SDS011;30526;52.184;4.476;2023-05-10T05:32:49;30.08;;;12.90;;
44810;SDS011;30526;52.184;4.476;2023-05-10T05:35:15;30.20;;;12.73;;
44810;SDS011;30526;52.184;4.476;2023-05-10T05:37:41;28.75;;;11.15;;
44810;SDS011;30526;52.184;4.476;2023-05-10T05:40:07;23.83;;;9.20;;
44810;SDS011;30526;52.184;4.476;2023-05-10T05:42:33;23.88;;;9.82;;
44810;SDS011;30526;52.184;4.476;2023-05-10T05:44:59;18.30;;;8.55;;
44810;SDS011;30526;52.184;4.476;2023-05-10T05:47:25;19.58;;;8.02;;
44810;SDS011;30526;52.184;4.476;2023-05-10T05:49:51;14.95;;;6.80;;
44810;SDS011;30526;52.184;4.476;2023-05-10T05:52:17;14.02;;;6.25;;
44810;SDS011;30526;52.184;4.476;2023-05-10T05:54:43;14.68;;;6.20;;
44810;SDS011;30526;52.184;4.476;2023-05-10T05:57:09;9.65;;;5.18;;
44810;SDS011;30526;52.184;4.476;2023-05-10T05:59:35;9.00;;;5.45;;
44810;SDS011;30526;52.184;4.476;2023-05-10T06:02:06;7.57;;;4.97;;
44810;SDS011;30526;52.184;4.476;2023-05-10T06:04:32;8.75;;;4.82;;
44810;SDS011;30526;52.184;4.476;2023-05-10T06:06:58;8.52;;;4.55;;
44810;SDS011;30526;52.184;4.476;2023-05-10T06:09:24;8.35;;;4.47;;
44810;SDS011;30526;52.184;4.476;2023-05-10T06:11:50;6.43;;;4.07;;
44810;SDS011;30526;52.184;4.476;2023-05-10T06:14:16;7.68;;;4.35;;
44810;SDS011;30526;52.184;4.476;2023-05-10T06:16:42;4.25;;;3.28;;
44810;SDS011;30526;52.184;4.476;2023-05-10T06:19:08;7.15;;;3.83;;
44810;SDS011;30526;52.184;4.476;2023-05-10T06:21:34;8.75;;;3.40;;
44810;SDS011;30526;52.184;4.476;2023-05-10T06:24:00;4.53;;;3.38;;
44810;SDS011;30526;52.184;4.476;2023-05-10T06:26:27;5.85;;;3.40;;
44810;SDS011;30526;52.184;4.476;2023-05-10T06:28:53;6.60;;;3.03;;
44810;SDS011;30526;52.184;4.476;2023-05-10T06:31:19;4.88;;;3.45;;
44810;SDS011;30526;52.184;4.476;2023-05-10T06:33:45;6.20;;;3.78;;
44810;SDS011;30526;52.184;4.476;2023-05-10T06:36:12;5.15;;;4.07;;
44810;SDS011;30526;52.184;4.476;2023-05-10T06:38:38;7.57;;;5.00;;
44810;SDS011;30526;52.184;4.476;2023-05-10T06:41:04;9.65;;;5.82;;
44810;SDS011;30526;52.184;4.476;2023-05-10T06:43:30;9.75;;;5.63;;
44810;SDS011;30526;52.184;4.476;2023-05-10T06:45:57;9.13;;;6.40;;
44810;SDS011;30526;52.184;4.476;2023-05-10T06:48:23;8.43;;;5.90;;
44810;SDS011;30526;52.184;4.476;2023-05-10T06:50:49;9.25;;;5.72;;
44810;SDS011;30526;52.184;4.476;2023-05-10T06:53:15;9.07;;;6.47;;
44810;SDS011;30526;52.184;4.476;2023-05-10T06:55:41;7.90;;;5.88;;
44810;SDS011;30526;52.184;4.476;2023-05-10T06:58:07;8.00;;;5.72;;
44810;SDS011;30526;52.184;4.476;2023-05-10T07:00:33;12.48;;;5.35;;
44810;SDS011;30526;52.184;4.476;2023-05-10T07:03:00;9.63;;;5.20;;
44810;SDS011;30526;52.184;4.476;2023-05-10T07:05:26;8.50;;;5.35;;
44810;SDS011;30526;52.184;4.476;2023-05-10T07:07:52;8.85;;;5.55;;
44810;SDS011;30526;52.184;4.476;2023-05-10T07:10:18;12.52;;;5.18;;
44810;SDS011;30526;52.184;4.476;2023-05-10T07:12:44;10.35;;;5.72;;
44810;SDS011;30526;52.184;4.476;2023-05-10T07:15:10;10.38;;;5.57;;
44810;SDS011;30526;52.184;4.476;2023-05-10T07:17:37;5.87;;;4.60;;
44810;SDS011;30526;52.184;4.476;2023-05-10T07:20:03;7.97;;;4.90;;
44810;SDS011;30526;52.184;4.476;2023-05-10T07:22:30;6.30;;;4.50;;
44810;SDS011;30526;52.184;4.476;2023-05-10T07:24:56;7.25;;;4.68;;
44810;SDS011;30526;52.184;4.476;2023-05-10T07:27:22;6.40;;;4.45;;
44810;SDS011;30526;52.184;4.476;2023-05-10T07:29:48;8.20;;;4.32;;
44810;SDS011;30526;52.184;4.476;2023-05-10T07:32:14;5.82;;;3.35;;
44810;SDS011;30526;52.184;4.476;2023-05-10T07:34:40;7.47;;;3.92;;
44810;SDS011;30526;52.184;4.476;2023-05-10T07:37:06;5.18;;;3.75;;
44810;SDS011;30526;52.184;4.476;2023-05-10T07:39:32;5.18;;;3.30;;
44810;SDS011;30526;52.184;4.476;2023-05-10T07:41:58;5.90;;;3.58;;
44810;SDS011;30526;52.184;4.476;2023-05-10T07:44:24;6.30;;;3.60;;
44810;SDS011;30526;52.184;4.476;2023-05-10T07:46:50;5.20;;;3.20;;
44810;SDS011;30526;52.184;4.476;2023-05-10T07:49:17;4.43;;;3.45;;
44810;SDS011;30526;52.184;4.476;2023-05-10T07:51:43;4.45;;;2.55;;
44810;SDS011;30526;52.184;4.476;2023-05-10T07:54:09;5.45;;;2.60;;
44810;SDS011;30526;52.184;4.476;2023-05-10T07:56:35;3.53;;;2.65;;
44810;SDS011;30526;52.184;4.476;2023-05-10T07:59:02;3.92;;;2.22;;
44810;SDS011;30526;52.184;4.476;2023-05-10T08:01:32;3.42;;;2.17;;
44810;SDS011;30526;52.184;4.476;2023-05-10T08:03:58;4.93;;;2.10;;
44810;SDS011;30526;52.184;4.476;2023-05-10T08:06:24;5.33;;;2.10;;
44810;SDS011;30526;52.184;4.476;2023-05-10T08:08:54;5.05;;;2.20;;
44810;SDS011;30526;52.184;4.476;2023-05-10T08:11:21;3.92;;;2.22;;
44810;SDS011;30526;52.184;4.476;2023-05-10T08:13:47;3.58;;;1.95;;
44810;SDS011;30526;52.184;4.476;2023-05-10T08:16:13;5.47;;;2.45;;
44810;SDS011;30526;52.184;4.476;2023-05-10T08:18:40;8.13;;;2.87;;
44810;SDS011;30526;52.184;4.476;2023-05-10T08:21:06;3.40;;;2.28;;
44810;SDS011;30526;52.184;4.476;2023-05-10T08:23:32;4.43;;;2.17;;
44810;SDS011;30526;52.184;4.476;2023-05-10T08:25:59;7.32;;;2.65;;
44810;SDS011;30526;52.184;4.476;2023-05-10T08:28:25;7.57;;;2.90;;
44810;SDS011;30526;52.184;4.476;2023-05-10T08:30:52;4.33;;;2.50;;
44810;SDS011;30526;52.184;4.476;2023-05-10T08:33:18;5.00;;;2.70;;
44810;SDS011;30526;52.184;4.476;2023-05-10T08:35:44;4.07;;;2.63;;
44810;SDS011;30526;52.184;4.476;2023-05-10T08:38:10;4.22;;;2.45;;
44810;SDS011;30526;52.184;4.476;2023-05-10T08:40:37;4.38;;;2.28;;
44810;SDS011;30526;52.184;4.476;2023-05-10T08:45:32;5.93;;;2.20;;
44810;SDS011;30526;52.184;4.476;2023-05-10T08:48:01;4.70;;;3.05;;
44810;SDS011;30526;52.184;4.476;2023-05-10T08:50:27;3.67;;;2.53;;
44810;SDS011;30526;52.184;4.476;2023-05-10T08:52:54;3.75;;;2.67;;
44810;SDS011;30526;52.184;4.476;2023-05-10T08:55:21;5.07;;;2.35;;
44810;SDS011;30526;52.184;4.476;2023-05-10T08:57:48;3.08;;;2.13;;
44810;SDS011;30526;52.184;4.476;2023-05-10T09:00:15;4.40;;;2.72;;
44810;SDS011;30526;52.184;4.476;2023-05-10T09:02:42;2.95;;;1.88;;
44810;SDS011;30526;52.184;4.476;2023-05-10T09:05:12;6.00;;;2.38;;
44810;SDS011;30526;52.184;4.476;2023-05-10T09:07:40;2.85;;;1.88;;
44810;SDS011;30526;52.184;4.476;2023-05-10T09:10:06;3.30;;;2.10;;
44810;SDS011;30526;52.184;4.476;2023-05-10T09:12:33;3.33;;;2.50;;
44810;SDS011;30526;52.184;4.476;2023-05-10T09:15:00;7.83;;;3.27;;
44810;SDS011;30526;52.184;4.476;2023-05-10T09:17:27;6.40;;;3.55;;
44810;SDS011;30526;52.184;4.476;2023-05-10T09:19:58;4.72;;;3.40;;
44810;SDS011;30526;52.184;4.476;2023-05-10T09:22:24;5.43;;;3.50;;
44810;SDS011;30526;52.184;4.476;2023-05-10T09:25:03;8.10;;;4.90;;
44810;SDS011;30526;52.184;4.476;2023-05-10T09:27:29;7.28;;;5.00;;
44810;SDS011;30526;52.184;4.476;2023-05-10T09:29:55;8.07;;;6.28;;
44810;SDS011;30526;52.184;4.476;2023-05-10T09:32:22;12.13;;;7.40;;
44810;SDS011;30526;52.184;4.476;2023-05-10T09:35:06;14.02;;;7.75;;
44810;SDS011;30526;52.184;4.476;2023-05-10T09:37:32;13.20;;;8.00;;
44810;SDS011;30526;52.184;4.476;2023-05-10T09:39:58;10.07;;;6.75;;
44810;SDS011;30526;52.184;4.476;2023-05-10T09:42:24;12.60;;;7.30;;
44810;SDS011;30526;52.184;4.476;2023-05-10T09:44:50;13.35;;;7.80;;
44810;SDS011;30526;52.184;4.476;2023-05-10T09:47:16;14.05;;;8.15;;
44810;SDS011;30526;52.184;4.476;2023-05-10T09:49:43;13.90;;;8.73;;
44810;SDS011;30526;52.184;4.476;2023-05-10T09:52:10;14.13;;;8.18;;
44810;SDS011;30526;52.184;4.476;2023-05-10T09:54:36;15.30;;;8.43;;
44810;SDS011;30526;52.184;4.476;2023-05-10T09:57:02;12.02;;;7.22;;
44810;SDS011;30526;52.184;4.476;2023-05-10T09:59:28;16.00;;;8.45;;
44810;SDS011;30526;52.184;4.476;2023-05-10T10:01:58;15.55;;;7.97;;
44810;SDS011;30526;52.184;4.476;2023-05-10T10:04:25;9.45;;;6.47;;
44810;SDS011;30526;52.184;4.476;2023-05-10T10:06:58;14.10;;;7.63;;
44810;SDS011;30526;52.184;4.476;2023-05-10T10:09:25;15.27;;;7.65;;
44810;SDS011;30526;52.184;4.476;2023-05-10T10:11:52;19.83;;;9.73;;
44810;SDS011;30526;52.184;4.476;2023-05-10T10:14:21;20.98;;;9.50;;
44810;SDS011;30526;52.184;4.476;2023-05-10T10:19:13;18.75;;;9.30;;
44810;SDS011;30526;52.184;4.476;2023-05-10T10:21:39;23.60;;;10.90;;
44810;SDS011;30526;52.184;4.476;2023-05-10T10:24:05;23.30;;;10.55;;
44810;SDS011;30526;52.184;4.476;2023-05-10T10:26:35;21.80;;;10.43;;
44810;SDS011;30526;52.184;4.476;2023-05-10T10:29:23;24.88;;;11.65;;
44810;SDS011;30526;52.184;4.476;2023-05-10T10:34:46;26.95;;;11.85;;
44810;SDS011;30526;52.184;4.476;2023-05-10T10:37:12;25.50;;;11.77;;
44810;SDS011;30526;52.184;4.476;2023-05-10T10:39:38;23.65;;;12.18;;
44810;SDS011;30526;52.184;4.476;2023-05-10T10:42:04;25.00;;;12.38;;
44810;SDS011;30526;52.184;4.476;2023-05-10T10:54:41;25.98;;;9.82;;
44810;SDS011;30526;52.184;4.476;2023-05-10T10:57:13;33.75;;;10.10;;
44810;SDS011;30526;52.184;4.476;2023-05-10T10:59:42;21.27;;;8.13;;
44810;SDS011;30526;52.184;4.476;2023-05-10T11:02:09;28.80;;;10.52;;
44810;SDS011;30526;52.184;4.476;2023-05-10T11:04:41;23.13;;;9.15;;
44810;SDS011;30526;52.184;4.476;2023-05-10T11:07:18;21.40;;;8.25;;
44810;SDS011;30526;52.184;4.476;2023-05-10T11:09:45;13.52;;;7.15;;
44810;SDS011;30526;52.184;4.476;2023-05-10T11:12:13;10.80;;;6.13;;
44810;SDS011;30526;52.184;4.476;2023-05-10T11:14:39;13.68;;;6.00;;
44810;SDS011;30526;52.184;4.476;2023-05-10T11:17:24;12.70;;;5.75;;
44810;SDS011;30526;52.184;4.476;2023-05-10T11:20:07;10.32;;;5.68;;
44810;SDS011;30526;52.184;4.476;2023-05-10T11:22:57;9.93;;;5.28;;
44810;SDS011;30526;52.184;4.476;2023-05-10T11:25:28;10.57;;;5.43;;
44810;SDS011;30526;52.184;4.476;2023-05-10T11:27:54;11.65;;;5.38;;
44810;SDS011;30526;52.184;4.476;2023-05-10T11:30:21;7.65;;;4.32;;
44810;SDS011;30526;52.184;4.476;2023-05-10T11:32:47;15.00;;;6.25;;
44810;SDS011;30526;52.184;4.476;2023-05-10T11:35:13;12.73;;;6.25;;
44810;SDS011;30526;52.184;4.476;2023-05-10T11:37:41;14.07;;;6.25;;
44810;SDS011;30526;52.184;4.476;2023-05-10T11:40:08;14.00;;;6.95;;
44810;SDS011;30526;52.184;4.476;2023-05-10T11:42:38;15.27;;;6.40;;
44810;SDS011;30526;52.184;4.476;2023-05-10T11:45:04;16.23;;;7.05;;
44810;SDS011;30526;52.184;4.476;2023-05-10T11:47:31;14.50;;;6.37;;
44810;SDS011;30526;52.184;4.476;2023-05-10T11:49:57;12.73;;;6.85;;
44810;SDS011;30526;52.184;4.476;2023-05-10T11:52:23;17.70;;;8.13;;
44810;SDS011;30526;52.184;4.476;2023-05-10T11:54:53;16.27;;;6.17;;
44810;SDS011;30526;52.184;4.476;2023-05-10T11:57:19;15.32;;;7.13;;
44810;SDS011;30526;52.184;4.476;2023-05-10T11:59:46;13.53;;;6.87;;
44810;SDS011;30526;52.184;4.476;2023-05-10T12:02:15;9.63;;;5.50;;
44810;SDS011;30526;52.184;4.476;2023-05-10T12:04:41;8.70;;;4.68;;
44810;SDS011;30526;52.184;4.476;2023-05-10T12:07:07;9.65;;;4.68;;
44810;SDS011;30526;52.184;4.476;2023-05-10T12:09:33;10.00;;;5.72;;
44810;SDS011;30526;52.184;4.476;2023-05-10T12:11:59;9.23;;;5.30;;
44810;SDS011;30526;52.184;4.476;2023-05-10T12:14:26;12.88;;;6.10;;
44810;SDS011;30526;52.184;4.476;2023-05-10T12:16:53;11.18;;;5.13;;
44810;SDS011;30526;52.184;4.476;2023-05-10T12:19:19;15.48;;;6.85;;
44810;SDS011;30526;52.184;4.476;2023-05-10T12:21:46;13.02;;;5.38;;
44810;SDS011;30526;52.184;4.476;2023-05-10T12:24:12;16.00;;;7.65;;
44810;SDS011;30526;52.184;4.476;2023-05-10T12:26:41;17.17;;;7.68;;
44810;SDS011;30526;52.184;4.476;2023-05-10T12:29:14;14.95;;;7.55;;
44810;SDS011;30526;52.184;4.476;2023-05-10T12:31:50;20.88;;;8.20;;
44810;SDS011;30526;52.184;4.476;2023-05-10T12:34:26;14.48;;;7.35;;
44810;SDS011;30526;52.184;4.476;2023-05-10T12:36:53;16.63;;;7.20;;
44810;SDS011;30526;52.184;4.476;2023-05-10T12:39:19;15.07;;;7.45;;
44810;SDS011;30526;52.184;4.476;2023-05-10T12:41:45;14.80;;;7.18;;
44810;SDS011;30526;52.184;4.476;2023-05-10T12:44:11;18.83;;;7.57;;
44810;SDS011;30526;52.184;4.476;2023-05-10T12:46:37;16.52;;;6.78;;
44810;SDS011;30526;52.184;4.476;2023-05-10T12:49:03;17.65;;;7.72;;
44810;SDS011;30526;52.184;4.476;2023-05-10T12:51:29;18.67;;;8.25;;
44810;SDS011;30526;52.184;4.476;2023-05-10T12:53:56;24.63;;;10.15;;
44810;SDS011;30526;52.184;4.476;2023-05-10T12:56:22;21.00;;;9.15;;
44810;SDS011;30526;52.184;4.476;2023-05-10T12:58:48;25.88;;;9.80;;
44810;SDS011;30526;52.184;4.476;2023-05-10T13:01:14;27.25;;;10.40;;
44810;SDS011;30526;52.184;4.476;2023-05-10T13:03:40;23.90;;;9.77;;
44810;SDS011;30526;52.184;4.476;2023-05-10T13:06:07;23.85;;;10.23;;
44810;SDS011;30526;52.184;4.476;2023-05-10T13:08:33;19.63;;;8.95;;
44810;SDS011;30526;52.184;4.476;2023-05-10T13:11:00;20.30;;;9.77;;
44810;SDS011;30526;52.184;4.476;2023-05-10T13:13:26;18.00;;;7.32;;
44810;SDS011;30526;52.184;4.476;2023-05-10T13:15:52;18.85;;;9.00;;
44810;SDS011;30526;52.184;4.476;2023-05-10T13:18:18;19.52;;;10.02;;
44810;SDS011;30526;52.184;4.476;2023-05-10T13:20:44;22.23;;;10.43;;
44810;SDS011;30526;52.184;4.476;2023-05-10T13:23:10;24.63;;;10.27;;
44810;SDS011;30526;52.184;4.476;2023-05-10T13:25:36;17.85;;;9.40;;
44810;SDS011;30526;52.184;4.476;2023-05-10T13:28:02;15.98;;;9.48;;
44810;SDS011;30526;52.184;4.476;2023-05-10T13:30:28;21.83;;;9.52;;
44810;SDS011;30526;52.184;4.476;2023-05-10T13:32:54;21.70;;;9.30;;
44810;SDS011;30526;52.184;4.476;2023-05-10T13:35:20;15.27;;;8.32;;
44810;SDS011;30526;52.184;4.476;2023-05-10T13:37:46;14.30;;;8.23;;
44810;SDS011;30526;52.184;4.476;2023-05-10T13:40:12;15.88;;;8.95;;
44810;SDS011;30526;52.184;4.476;2023-05-10T13:42:40;20.85;;;10.05;;
44810;SDS011;30526;52.184;4.476;2023-05-10T13:45:06;18.05;;;9.63;;
44810;SDS011;30526;52.184;4.476;2023-05-10T13:47:32;15.25;;;8.90;;
44810;SDS011;30526;52.184;4.476;2023-05-10T13:49:58;17.20;;;9.25;;
44810;SDS011;30526;52.184;4.476;2023-05-10T13:52:25;15.20;;;6.70;;
44810;SDS011;30526;52.184;4.476;2023-05-10T13:54:51;18.52;;;9.13;;
44810;SDS011;30526;52.184;4.476;2023-05-10T13:57:20;16.55;;;9.93;;
44810;SDS011;30526;52.184;4.476;2023-05-10T13:59:46;19.55;;;9.27;;
44810;SDS011;30526;52.184;4.476;2023-05-10T14:02:12;15.20;;;8.40;;
44810;SDS011;30526;52.184;4.476;2023-05-10T14:04:38;13.57;;;7.93;;
44810;SDS011;30526;52.184;4.476;2023-05-10T14:07:04;17.73;;;8.32;;
44810;SDS011;30526;52.184;4.476;2023-05-10T14:09:30;16.25;;;8.60;;
44810;SDS011;30526;52.184;4.476;2023-05-10T14:11:56;9.90;;;7.13;;
44810;SDS011;30526;52.184;4.476;2023-05-10T14:14:22;15.32;;;8.18;;
44810;SDS011;30526;52.184;4.476;2023-05-10T14:16:48;16.02;;;7.88;;
44810;SDS011;30526;52.184;4.476;2023-05-10T14:19:14;14.40;;;8.15;;
44810;SDS011;30526;52.184;4.476;2023-05-10T14:21:40;13.23;;;8.13;;
44810;SDS011;30526;52.184;4.476;2023-05-10T14:24:06;12.55;;;7.40;;
44810;SDS011;30526;52.184;4.476;2023-05-10T14:26:32;15.25;;;9.38;;
44810;SDS011;30526;52.184;4.476;2023-05-10T14:28:59;15.50;;;9.63;;
44810;SDS011;30526;52.184;4.476;2023-05-10T14:31:25;13.05;;;9.07;;
44810;SDS011;30526;52.184;4.476;2023-05-10T14:33:52;12.85;;;8.50;;
44810;SDS011;30526;52.184;4.476;2023-05-10T14:36:18;11.88;;;7.90;;
44810;SDS011;30526;52.184;4.476;2023-05-10T14:38:44;15.75;;;7.80;;
44810;SDS011;30526;52.184;4.476;2023-05-10T14:41:10;12.25;;;7.55;;
44810;SDS011;30526;52.184;4.476;2023-05-10T14:43:39;13.43;;;8.15;;
44810;SDS011;30526;52.184;4.476;2023-05-10T14:46:06;16.50;;;9.00;;
44810;SDS011;30526;52.184;4.476;2023-05-10T14:48:32;17.10;;;9.82;;
44810;SDS011;30526;52.184;4.476;2023-05-10T14:50:58;21.33;;;11.23;;
44810;SDS011;30526;52.184;4.476;2023-05-10T14:53:24;18.98;;;11.15;;
44810;SDS011;30526;52.184;4.476;2023-05-10T14:55:50;16.55;;;10.80;;
44810;SDS011;30526;52.184;4.476;2023-05-10T14:58:16;17.17;;;10.68;;
44810;SDS011;30526;52.184;4.476;2023-05-10T15:00:42;18.65;;;10.48;;
44810;SDS011;30526;52.184;4.476;2023-05-10T15:03:08;18.63;;;11.02;;
44810;SDS011;30526;52.184;4.476;2023-05-10T15:05:34;15.70;;;8.48;;
44810;SDS011;30526;52.184;4.476;2023-05-10T15:08:02;26.52;;;12.18;;
44810;SDS011;30526;52.184;4.476;2023-05-10T15:10:29;28.83;;;12.63;;